Allemand, Louisiana
Current Conditions -  °F | °C
As of 8:47 AM on Saturday 20 Dec 2014 (Local Time) from KHUM Reporting Station
Haze Haze  
Wind Chill: 50°   Ceiling: 500
Heat Index: 50°   Visibility: 5mi
Dew Point: 48°   Wind: 10mph
Humidity: 94%   Direction: 30°NNE
Pressure: 30.14"   Gusts: NA
Location:  29.5867°N, 90.8252°W
Report Text: KHUM 201447Z 03009KT 5SM BR OVC005 10/09 A3014 RMK RY12/30 CLSD ATIS Z GPS RY36 MS
Loading
Personal Weather Stations






























Interactive Weather Map New forecast layout! Learn more

10-Day Weather Forecast

Advertisements
Track Severe Weather on mobile